Time;durP1;ratioP1;P1;durP2;ratioP2;P2;SDS_P1;SDS_P2;PMS_P1;PMS_P2;Temp;Humidity;BMP_temperature;BMP_pressure;BME280_temperature;BME280_humidity;BME280_pressure;Samples;Min_cycle;Max_cycle;Signal;HPM_P1;HPM_P2
2024/02/28 00:01:03;;;;;;;53.20;28.33;;;5.70;99.90;;;;;;4162508;28;20480;-58
2024/02/28 00:03:04;;;;;;;62.33;30.93;;;5.80;99.90;;;;;;4160766;28;20034;-57
2024/02/28 00:05:06;;;;;;;58.00;28.37;;;5.80;99.90;;;;;;4161920;28;20026;-52
2024/02/28 00:07:07;;;;;;;56.53;30.03;;;5.80;99.90;;;;;;4161739;28;20080;-57
2024/02/28 00:09:09;;;;;;;57.17;28.23;;;5.80;99.90;;;;;;4162025;28;20022;-56
2024/02/28 00:11:11;;;;;;;64.40;28.40;;;5.80;99.90;;;;;;4161217;28;20049;-52
2024/02/28 00:13:12;;;;;;;54.97;27.10;;;5.80;99.90;;;;;;4161094;28;20045;-52
2024/02/28 00:15:14;;;;;;;53.83;27.60;;;5.80;99.90;;;;;;4162334;28;20087;-53
2024/02/28 00:17:15;;;;;;;53.80;27.17;;;5.80;99.90;;;;;;4159681;28;20451;-55
2024/02/28 00:19:18;;;;;;;51.03;25.07;;;5.80;99.90;;;;;;4162115;28;20030;-56
2024/02/28 00:21:19;;;;;;;50.10;23.27;;;5.70;99.90;;;;;;4160605;28;20110;-55
2024/02/28 00:23:20;;;;;;;49.93;26.07;;;5.80;99.90;;;;;;4162213;28;20041;-50
2024/02/28 00:25:21;;;;;;;38.07;21.63;;;5.70;99.90;;;;;;4160729;28;20030;-51
2024/02/28 00:27:23;;;;;;;46.63;24.17;;;5.60;99.90;;;;;;4161439;28;20045;-56
2024/02/28 00:29:24;;;;;;;53.33;23.17;;;5.70;99.90;;;;;;4161093;28;20075;-51
2024/02/28 00:31:25;;;;;;;46.13;21.93;;;5.60;99.90;;;;;;4162423;28;20067;-54
2024/02/28 00:33:27;;;;;;;45.33;23.07;;;5.60;99.90;;;;;;4160369;28;20087;-54
2024/02/28 00:35:32;;;;;;;49.40;22.80;;;5.60;99.90;;;;;;4161366;28;20037;-54
2024/02/28 00:37:34;;;;;;;43.30;23.70;;;5.60;99.90;;;;;;4160531;28;20037;-52
2024/02/28 00:39:35;;;;;;;40.43;23.20;;;5.60;99.90;;;;;;4161252;28;20045;-58
2024/02/28 00:41:37;;;;;;;43.00;21.93;;;5.50;99.90;;;;;;4161246;28;20167;-54
2024/02/28 00:43:38;;;;;;;44.63;21.93;;;5.40;99.90;;;;;;4160470;28;20099;-58
2024/02/28 00:45:39;;;;;;;38.37;21.20;;;5.40;99.90;;;;;;4160601;28;20383;-56
2024/02/28 00:47:40;;;;;;;35.30;19.30;;;5.40;99.90;;;;;;4159988;28;20111;-58
2024/02/28 00:49:42;;;;;;;37.57;20.57;;;5.40;99.90;;;;;;4161270;28;20103;-56
2024/02/28 00:51:43;;;;;;;36.03;18.60;;;5.40;99.90;;;;;;4160042;28;20963;-54
2024/02/28 00:53:44;;;;;;;36.83;19.47;;;5.40;99.90;;;;;;4159916;28;20041;-56
2024/02/28 00:55:45;;;;;;;32.67;17.47;;;5.20;99.90;;;;;;4160743;28;20382;-57
2024/02/28 00:57:46;;;;;;;40.40;20.50;;;5.20;99.90;;;;;;4160902;28;20038;-55
2024/02/28 00:59:48;;;;;;;31.33;18.27;;;5.10;99.90;;;;;;4160952;28;20037;-56
2024/02/28 01:01:49;;;;;;;37.27;17.37;;;5.10;99.90;;;;;;4160539;28;20057;-54
2024/02/28 01:03:50;;;;;;;33.67;17.63;;;5.20;99.90;;;;;;4159611;28;20072;-58
2024/02/28 01:05:52;;;;;;;30.47;17.43;;;5.10;99.90;;;;;;4161244;28;20037;-59
2024/02/28 01:07:53;;;;;;;33.33;18.23;;;5.10;99.90;;;;;;4160273;28;20107;-54
2024/02/28 01:09:54;;;;;;;32.77;17.57;;;5.10;99.90;;;;;;4160586;28;20038;-58
2024/02/28 01:11:55;;;;;;;34.57;17.63;;;5.10;99.90;;;;;;4159957;28;20083;-57
2024/02/28 01:13:57;;;;;;;32.77;16.73;;;5.10;99.90;;;;;;4160493;28;20041;-57
2024/02/28 01:15:59;;;;;;;37.87;17.07;;;5.10;99.90;;;;;;4161055;28;20132;-57
2024/02/28 01:18:01;;;;;;;34.73;17.47;;;5.10;99.90;;;;;;4160086;28;20026;-55
2024/02/28 01:20:02;;;;;;;40.33;19.07;;;5.10;99.90;;;;;;4160596;28;20095;-57
2024/02/28 01:22:03;;;;;;;38.43;19.40;;;5.10;99.90;;;;;;4160475;28;20037;-57
2024/02/28 01:24:05;;;;;;;36.30;18.13;;;5.10;99.90;;;;;;4160313;28;20053;-56
2024/02/28 01:26:06;;;;;;;37.10;18.03;;;5.10;99.90;;;;;;4158988;28;20048;-57
2024/02/28 01:28:07;;;;;;;37.13;17.60;;;5.10;99.90;;;;;;4160771;28;20481;-51
2024/02/28 01:30:08;;;;;;;36.03;18.90;;;5.10;99.90;;;;;;4159455;28;20346;-59
2024/02/28 01:32:10;;;;;;;39.47;19.27;;;5.10;99.90;;;;;;4161193;28;20037;-55
2024/02/28 01:34:11;;;;;;;41.13;19.50;;;5.10;99.90;;;;;;4159809;28;20049;-56
2024/02/28 01:36:12;;;;;;;38.97;19.10;;;5.10;99.90;;;;;;4161366;28;20037;-56
2024/02/28 01:38:14;;;;;;;34.80;17.57;;;5.10;99.90;;;;;;4160291;28;20087;-55
2024/02/28 01:40:15;;;;;;;36.50;19.20;;;5.10;99.90;;;;;;4160737;28;20103;-57
2024/02/28 01:42:16;;;;;;;36.33;18.90;;;5.20;99.90;;;;;;4160596;28;20088;-59
2024/02/28 01:44:18;;;;;;;34.00;17.50;;;5.10;99.90;;;;;;4159993;28;20666;-59
2024/02/28 01:46:27;;;;;;;33.60;17.17;;;5.10;99.90;;;;;;4160140;28;20045;-58
2024/02/28 01:48:29;;;;;;;38.43;18.03;;;5.10;99.90;;;;;;4142808;28;20848;-55
2024/02/28 01:50:32;;;;;;;39.53;18.93;;;5.10;99.90;;;;;;4160257;28;20522;-59
2024/02/28 01:52:33;;;;;;;38.20;18.37;;;5.10;99.90;;;;;;4159366;28;20409;-59
2024/02/28 01:54:35;;;;;;;43.37;18.83;;;5.10;99.90;;;;;;4160156;28;20333;-53
2024/02/28 01:56:37;;;;;;;35.70;17.97;;;5.20;99.90;;;;;;4158987;28;20091;-58
2024/02/28 01:58:40;;;;;;;39.60;16.77;;;5.10;99.90;;;;;;4161262;28;20417;-56
2024/02/28 02:00:42;;;;;;;37.40;17.80;;;5.10;99.90;;;;;;4159402;28;20046;-55
2024/02/28 02:02:43;;;;;;;39.23;18.50;;;5.10;99.90;;;;;;4161207;28;20064;-59
2024/02/28 02:04:44;;;;;;;35.00;17.93;;;5.10;99.90;;;;;;4160672;28;20041;-58
2024/02/28 02:06:47;;;;;;;35.20;17.03;;;5.10;99.90;;;;;;4163426;28;20041;-57
2024/02/28 02:08:48;;;;;;;29.90;16.20;;;5.10;99.90;;;;;;4163148;28;20072;-59
2024/02/28 02:10:50;;;;;;;31.97;14.37;;;5.20;99.90;;;;;;4163569;28;20353;-57
2024/02/28 02:12:51;;;;;;;27.83;14.20;;;5.20;99.90;;;;;;4161975;28;20099;-57
2024/02/28 02:14:52;;;;;;;24.70;13.57;;;5.10;99.90;;;;;;4163524;28;20790;-55
2024/02/28 02:16:53;;;;;;;32.97;14.07;;;5.10;99.90;;;;;;4163386;28;20041;-53
2024/02/28 02:18:55;;;;;;;25.37;13.40;;;5.00;99.90;;;;;;4163094;28;20472;-58
2024/02/28 02:21:04;;;;;;;33.93;13.90;;;5.00;99.90;;;;;;4162633;28;20083;-59
2024/02/28 02:23:06;;;;;;;26.80;14.52;;;4.90;99.90;;;;;;4163182;28;20431;-55
2024/02/28 02:25:07;;;;;;;30.13;14.17;;;4.80;99.90;;;;;;4162094;28;20041;-56
2024/02/28 02:27:08;;;;;;;26.93;14.27;;;4.90;99.90;;;;;;4160758;28;20144;-57
2024/02/28 02:29:10;;;;;;;38.70;15.47;;;4.90;99.90;;;;;;4163260;28;20038;-58
2024/02/28 02:31:12;;;;;;;31.97;15.97;;;4.90;99.90;;;;;;4163280;28;20041;-59
2024/02/28 02:33:13;;;;;;;29.13;14.20;;;4.80;99.90;;;;;;4162295;28;20045;-57
2024/02/28 02:35:14;;;;;;;31.87;16.77;;;4.70;99.90;;;;;;4162322;28;20551;-58
2024/02/28 02:37:15;;;;;;;26.03;14.07;;;4.70;99.90;;;;;;4164040;28;20155;-51
2024/02/28 02:39:17;;;;;;;33.23;15.93;;;4.70;99.90;;;;;;4161880;28;20486;-59
2024/02/28 02:41:18;;;;;;;29.90;15.17;;;4.80;99.90;;;;;;4162158;28;20034;-55
2024/02/28 02:43:19;;;;;;;32.47;16.47;;;4.80;99.90;;;;;;4161421;28;20520;-59
2024/02/28 02:45:21;;;;;;;31.03;15.73;;;4.80;99.90;;;;;;4162822;28;20095;-61
2024/02/28 02:47:22;;;;;;;27.77;14.07;;;4.80;99.90;;;;;;4162098;28;20115;-59
2024/02/28 02:49:23;;;;;;;28.60;14.53;;;4.70;99.90;;;;;;4162576;28;20106;-60
2024/02/28 02:51:25;;;;;;;28.57;14.97;;;4.70;99.90;;;;;;4162090;28;20119;-56
2024/02/28 02:53:26;;;;;;;31.80;14.77;;;4.70;99.90;;;;;;4162354;28;20072;-58
2024/02/28 02:55:27;;;;;;;31.97;15.87;;;4.70;99.90;;;;;;4162696;28;20255;-60
2024/02/28 02:57:30;;;;;;;33.27;15.50;;;4.60;99.90;;;;;;4161168;28;20271;-59
2024/02/28 02:59:32;;;;;;;32.40;15.63;;;4.60;99.90;;;;;;4162732;28;20271;-53
2024/02/28 03:01:33;;;;;;;29.90;16.40;;;4.60;99.90;;;;;;4161844;28;20075;-51
2024/02/28 03:03:37;;;;;;;34.37;16.80;;;4.50;99.90;;;;;;4163486;28;20739;-48
2024/02/28 03:05:38;;;;;;;27.67;15.53;;;4.40;99.90;;;;;;4161977;28;20333;-55
2024/02/28 03:07:39;;;;;;;35.60;16.90;;;4.50;99.90;;;;;;4162429;28;20094;-51
2024/02/28 03:09:41;;;;;;;33.83;18.37;;;4.50;99.90;;;;;;4161216;28;20773;-51
2024/02/28 03:11:42;;;;;;;46.90;23.27;;;4.50;99.90;;;;;;4161991;28;20377;-53
2024/02/28 03:13:43;;;;;;;48.20;24.57;;;4.40;99.90;;;;;;4161282;28;20445;-55
2024/02/28 03:15:44;;;;;;;41.67;22.63;;;4.40;99.90;;;;;;4143883;28;20042;-58
2024/02/28 03:17:46;;;;;;;44.60;21.30;;;4.40;99.90;;;;;;4161334;28;20034;-59
2024/02/28 03:19:47;;;;;;;37.17;20.80;;;4.30;99.90;;;;;;4162907;28;20321;-60
2024/02/28 03:21:48;;;;;;;38.10;19.97;;;4.30;99.90;;;;;;4162433;28;20033;-56
2024/02/28 03:23:49;;;;;;;38.60;20.87;;;4.20;99.90;;;;;;4162591;28;20751;-56
2024/02/28 03:25:51;;;;;;;43.27;20.13;;;4.10;99.90;;;;;;4161301;28;20290;-55
2024/02/28 03:27:52;;;;;;;46.70;20.93;;;4.20;99.90;;;;;;4161895;28;20267;-51
2024/02/28 03:29:54;;;;;;;41.27;21.13;;;4.10;99.90;;;;;;4162818;28;20348;-51
2024/02/28 03:31:55;;;;;;;44.57;22.63;;;4.10;99.90;;;;;;4162162;28;20291;-51
2024/02/28 03:33:56;;;;;;;45.63;22.60;;;4.10;99.90;;;;;;4162739;28;20263;-53
2024/02/28 03:35:58;;;;;;;46.17;22.53;;;4.10;99.90;;;;;;4161648;28;20263;-51
2024/02/28 03:37:59;;;;;;;47.47;23.77;;;4.10;99.90;;;;;;4162535;28;20337;-52
2024/02/28 03:40:00;;;;;;;48.80;24.10;;;4.10;99.90;;;;;;4161308;28;20275;-52
2024/02/28 03:42:01;;;;;;;44.50;22.97;;;4.10;99.90;;;;;;4162917;28;20312;-57
2024/02/28 03:44:02;;;;;;;39.23;22.50;;;4.20;99.90;;;;;;4160716;28;20266;-52
2024/02/28 03:46:04;;;;;;;42.30;22.47;;;4.30;99.90;;;;;;4161855;28;20313;-59
2024/02/28 03:48:05;;;;;;;44.77;22.93;;;4.30;99.90;;;;;;4160589;28;20332;-54
2024/02/28 03:50:07;;;;;;;43.73;23.50;;;4.40;99.90;;;;;;4162321;28;20275;-51
2024/02/28 03:52:08;;;;;;;45.27;24.00;;;4.50;99.90;;;;;;4161647;28;20290;-54
2024/02/28 03:54:10;;;;;;;43.50;22.07;;;4.50;99.90;;;;;;4161741;28;20297;-51
2024/02/28 03:56:11;;;;;;;48.97;22.70;;;4.50;99.90;;;;;;4162100;28;20283;-53
2024/02/28 03:58:12;;;;;;;44.70;23.23;;;4.50;99.90;;;;;;4161731;28;20311;-55
2024/02/28 04:00:14;;;;;;;46.47;22.53;;;4.50;99.90;;;;;;4162011;28;20344;-49
2024/02/28 04:02:15;;;;;;;42.30;22.33;;;4.60;99.90;;;;;;4157803;28;20333;-58
2024/02/28 04:04:17;;;;;;;45.13;23.23;;;4.60;99.90;;;;;;4161386;28;20352;-53
2024/02/28 04:06:18;;;;;;;51.73;23.40;;;4.60;99.90;;;;;;4160378;28;20271;-56
2024/02/28 04:08:19;;;;;;;45.83;22.63;;;4.50;99.90;;;;;;4161978;28;20344;-55
2024/02/28 04:10:20;;;;;;;51.03;25.43;;;4.50;99.90;;;;;;4160169;28;20336;-58
2024/02/28 04:12:22;;;;;;;47.27;23.13;;;4.50;99.90;;;;;;4162075;28;20325;-52
2024/02/28 04:14:23;;;;;;;51.97;26.17;;;4.50;99.90;;;;;;4160782;28;20103;-54
2024/02/28 04:16:24;;;;;;;53.73;26.13;;;4.50;99.90;;;;;;4160948;28;20352;-52
2024/02/28 04:18:25;;;;;;;47.13;25.23;;;4.50;99.90;;;;;;4160000;28;20271;-51
2024/02/28 04:20:26;;;;;;;51.53;26.67;;;4.60;99.90;;;;;;4161401;28;20045;-58
2024/02/28 04:22:28;;;;;;;63.57;29.07;;;4.60;99.90;;;;;;4161539;28;20320;-53
2024/02/28 04:24:29;;;;;;;52.30;25.97;;;4.70;99.90;;;;;;4161568;28;20332;-50
2024/02/28 04:26:30;;;;;;;71.23;28.57;;;4.70;99.90;;;;;;4161113;28;20292;-56
2024/02/28 04:28:31;;;;;;;66.77;33.83;;;4.70;99.90;;;;;;4160035;28;20655;-61
2024/02/28 04:30:33;;;;;;;71.90;34.70;;;4.70;99.90;;;;;;4162070;28;20345;-48
2024/02/28 04:32:35;;;;;;;69.90;34.13;;;4.80;99.90;;;;;;4160870;28;20266;-53
2024/02/28 04:34:36;;;;;;;56.63;30.13;;;4.80;99.90;;;;;;4161075;28;20286;-48
2024/02/28 04:36:38;;;;;;;76.57;34.00;;;4.80;99.90;;;;;;4159805;28;20282;-54
2024/02/28 04:38:39;;;;;;;54.77;27.37;;;4.80;99.90;;;;;;4161045;28;20417;-57
2024/02/28 04:40:40;;;;;;;59.37;26.60;;;4.80;99.90;;;;;;4159863;28;20274;-57
2024/02/28 04:42:43;;;;;;;40.93;22.37;;;4.70;99.90;;;;;;4161544;28;20053;-58
2024/02/28 04:44:44;;;;;;;48.70;23.53;;;4.80;99.90;;;;;;4160694;28;20346;-51
2024/02/28 04:46:46;;;;;;;38.67;21.83;;;4.70;99.90;;;;;;4161841;28;20267;-56
2024/02/28 04:48:47;;;;;;;49.30;23.13;;;4.70;99.90;;;;;;4159908;28;20352;-54
2024/02/28 04:50:48;;;;;;;40.90;21.47;;;4.60;99.90;;;;;;4160624;28;20286;-52
2024/02/28 04:52:49;;;;;;;41.37;21.37;;;4.60;99.90;;;;;;4159787;28;20309;-50
2024/02/28 04:54:51;;;;;;;41.07;21.40;;;4.60;99.90;;;;;;4160264;28;20041;-45
2024/02/28 04:56:52;;;;;;;42.47;21.83;;;4.60;99.90;;;;;;4161040;28;20262;-47
2024/02/28 04:58:54;;;;;;;40.63;21.50;;;4.60;99.90;;;;;;4160130;28;20266;-45
2024/02/28 05:00:55;;;;;;;48.10;22.97;;;4.60;99.90;;;;;;4161662;28;20325;-53
2024/02/28 05:02:56;;;;;;;49.70;22.27;;;4.70;99.90;;;;;;4160391;28;20317;-62
2024/02/28 05:04:58;;;;;;;35.63;19.47;;;4.70;99.90;;;;;;4161472;28;20033;-58
2024/02/28 05:07:00;;;;;;;35.03;19.13;;;4.60;99.90;;;;;;4161021;28;20037;-47
2024/02/28 05:09:01;;;;;;;35.80;17.87;;;4.60;99.90;;;;;;4163049;28;20337;-53
2024/02/28 05:11:03;;;;;;;36.07;19.33;;;4.60;99.90;;;;;;4158933;28;20302;-50
2024/02/28 05:13:04;;;;;;;38.87;20.73;;;4.60;99.90;;;;;;4160009;28;20266;-55
2024/02/28 05:15:06;;;;;;;43.53;22.07;;;4.60;99.90;;;;;;4160098;28;20275;-55
2024/02/28 05:17:07;;;;;;;43.10;21.03;;;4.60;99.90;;;;;;4160713;28;20266;-57
2024/02/28 05:19:09;;;;;;;46.73;21.80;;;4.60;99.90;;;;;;4160178;28;20634;-52
2024/02/28 05:21:11;;;;;;;44.97;23.83;;;4.70;99.90;;;;;;4160176;28;21110;-51
2024/02/28 05:23:12;;;;;;;46.13;24.47;;;4.70;99.90;;;;;;4159674;28;20352;-52
2024/02/28 05:25:14;;;;;;;47.93;23.83;;;4.70;99.90;;;;;;4159768;28;20037;-55
2024/02/28 05:27:15;;;;;;;50.03;25.00;;;4.70;99.90;;;;;;4159279;28;20689;-55
2024/02/28 05:29:16;;;;;;;52.77;25.43;;;4.70;99.90;;;;;;4159458;28;20287;-56
2024/02/28 05:31:25;;;;;;;48.17;26.83;;;4.80;99.90;;;;;;4160121;28;20356;-58
2024/02/28 05:33:26;;;;;;;61.10;25.77;;;4.80;99.90;;;;;;4158395;28;20267;-57
2024/02/28 05:35:27;;;;;;;53.47;28.53;;;4.90;99.90;;;;;;4160119;28;20436;-53
2024/02/28 05:37:29;;;;;;;52.97;26.77;;;4.90;99.90;;;;;;4159493;28;20678;-57
2024/02/28 05:39:30;;;;;;;50.20;26.30;;;4.90;99.90;;;;;;4159706;28;20059;-58
2024/02/28 05:41:32;;;;;;;51.33;27.90;;;5.00;99.90;;;;;;4159014;28;20096;-53
2024/02/28 05:43:33;;;;;;;43.23;23.90;;;5.00;99.90;;;;;;4160560;28;20075;-57
2024/02/28 05:45:34;;;;;;;47.43;25.00;;;5.00;99.90;;;;;;4158741;28;20099;-55
2024/02/28 05:47:35;;;;;;;47.43;26.07;;;5.00;99.90;;;;;;4159892;28;20025;-57
2024/02/28 05:49:37;;;;;;;54.50;27.03;;;5.10;99.90;;;;;;4159564;28;20324;-53
2024/02/28 05:51:38;;;;;;;55.27;26.20;;;5.10;99.90;;;;;;4159387;28;20054;-58
2024/02/28 05:53:40;;;;;;;55.47;28.27;;;5.10;99.90;;;;;;4158997;28;20034;-57
2024/02/28 05:55:41;;;;;;;57.20;27.70;;;5.10;99.90;;;;;;4160177;28;20033;-51
2024/02/28 05:57:42;;;;;;;51.03;25.27;;;5.10;99.90;;;;;;4158904;28;20038;-51
2024/02/28 05:59:45;;;;;;;54.07;25.33;;;5.10;99.90;;;;;;4159761;28;20670;-57
2024/02/28 06:01:46;;;;;;;54.80;25.37;;;5.10;99.90;;;;;;4159136;28;20033;-54
2024/02/28 06:03:48;;;;;;;42.80;22.70;;;5.10;99.90;;;;;;4159464;28;20088;-52
2024/02/28 06:05:50;;;;;;;41.97;22.87;;;5.10;99.90;;;;;;4159648;28;20045;-56
2024/02/28 06:07:51;;;;;;;45.97;24.20;;;5.10;99.90;;;;;;4158971;28;20038;-55
2024/02/28 06:09:52;;;;;;;43.37;22.87;;;5.10;99.90;;;;;;4160418;28;20042;-54
2024/02/28 06:11:53;;;;;;;39.67;21.93;;;5.10;99.90;;;;;;4159606;28;20120;-53
2024/02/28 06:13:55;;;;;;;41.90;22.93;;;5.20;99.90;;;;;;4160615;28;20026;-53
2024/02/28 06:15:56;;;;;;;39.87;21.60;;;5.20;99.90;;;;;;4159519;28;20029;-58
2024/02/28 06:18:00;;;;;;;42.33;22.30;;;5.20;99.90;;;;;;4160893;28;20034;-57
2024/02/28 06:20:01;;;;;;;51.97;24.83;;;5.30;99.90;;;;;;4159169;28;20095;-58
2024/02/28 06:22:02;;;;;;;50.37;24.47;;;5.30;99.90;;;;;;4160841;28;20108;-56
2024/02/28 06:24:04;;;;;;;55.37;25.83;;;5.40;99.90;;;;;;4159616;28;20980;-54
2024/02/28 06:26:05;;;;;;;42.00;24.60;;;5.40;99.90;;;;;;4159642;28;20045;-56
2024/02/28 06:28:07;;;;;;;49.13;25.17;;;5.40;99.90;;;;;;4159469;28;20433;-53
2024/02/28 06:30:08;;;;;;;50.60;25.40;;;5.50;99.90;;;;;;4160098;28;20103;-57
2024/02/28 06:32:10;;;;;;;46.07;22.63;;;5.50;99.90;;;;;;4141700;28;20042;-52
2024/02/28 06:34:11;;;;;;;45.93;24.57;;;5.50;99.90;;;;;;4159234;28;20046;-51
2024/02/28 06:36:12;;;;;;;42.37;26.13;;;5.60;99.90;;;;;;4159590;28;20084;-57
2024/02/28 06:38:13;;;;;;;48.07;23.97;;;5.70;99.90;;;;;;4159175;28;20133;-56
2024/02/28 06:40:15;;;;;;;44.57;25.07;;;5.80;99.90;;;;;;4159973;28;20033;-55
2024/02/28 06:42:16;;;;;;;47.73;24.33;;;5.90;99.90;;;;;;4158350;28;20095;-52
2024/02/28 06:44:20;;;;;;;44.57;24.13;;;6.00;99.90;;;;;;4159704;28;20072;-57
2024/02/28 06:46:21;;;;;;;48.50;24.63;;;6.20;99.90;;;;;;4158757;28;20033;-54
2024/02/28 06:48:23;;;;;;;46.47;25.50;;;6.20;99.90;;;;;;4159870;28;20398;-59
2024/02/28 06:50:24;;;;;;;44.37;24.93;;;6.30;99.90;;;;;;4159432;28;20030;-54
2024/02/28 06:52:25;;;;;;;50.63;29.00;;;6.40;99.90;;;;;;4162604;28;20068;-57
2024/02/28 06:54:30;;;;;;;57.70;31.93;;;6.50;99.90;;;;;;4162464;28;20436;-56
2024/02/28 06:56:31;;;;;;;57.13;30.33;;;6.50;99.90;;;;;;4162057;28;20049;-51
2024/02/28 06:58:33;;;;;;;57.13;28.93;;;6.60;99.90;;;;;;4161368;28;20083;-53
2024/02/28 07:00:35;;;;;;;49.77;26.97;;;6.60;99.90;;;;;;4163336;28;20107;-57
2024/02/28 07:02:36;;;;;;;43.33;24.37;;;6.60;99.90;;;;;;4161690;28;20494;-56
2024/02/28 07:04:38;;;;;;;41.90;23.93;;;6.70;99.90;;;;;;4162334;28;20091;-56
2024/02/28 07:06:40;;;;;;;38.43;22.93;;;6.70;99.90;;;;;;4162535;28;20025;-54
2024/02/28 07:08:41;;;;;;;35.97;21.80;;;6.80;99.90;;;;;;4162498;28;20045;-55
2024/02/28 07:10:43;;;;;;;36.87;20.83;;;6.80;99.90;;;;;;4162883;28;20080;-53
2024/02/28 07:12:45;;;;;;;45.40;21.30;;;6.80;99.90;;;;;;4161198;28;20045;-57
2024/02/28 07:14:46;;;;;;;38.17;20.57;;;6.90;99.90;;;;;;4163111;28;20022;-59
2024/02/28 07:16:47;;;;;;;35.10;20.33;;;7.00;99.90;;;;;;4161499;28;20084;-55
2024/02/28 07:18:48;;;;;;;37.90;20.23;;;7.10;99.90;;;;;;4162634;28;20160;-54
2024/02/28 07:20:51;;;;;;;41.93;19.03;;;7.20;99.90;;;;;;4161501;28;20107;-57
2024/02/28 07:22:52;;;;;;;32.03;18.43;;;7.20;99.90;;;;;;4163112;28;20030;-57
2024/02/28 07:24:54;;;;;;;38.90;19.03;;;7.20;99.90;;;;;;4160836;28;20116;-54
2024/02/28 07:26:55;;;;;;;35.77;20.40;;;7.30;99.90;;;;;;4162831;28;20087;-49
2024/02/28 07:28:56;;;;;;;44.43;20.83;;;7.30;99.90;;;;;;4161491;28;20041;-54
2024/02/28 07:30:57;;;;;;;39.17;20.37;;;7.40;99.90;;;;;;4162530;28;20414;-49
2024/02/28 07:32:59;;;;;;;32.97;20.73;;;7.60;99.90;;;;;;4161024;28;20473;-51
2024/02/28 07:35:03;;;;;;;34.13;20.37;;;7.70;99.90;;;;;;4162377;28;20053;-54
2024/02/28 07:37:04;;;;;;;35.90;20.60;;;7.70;99.90;;;;;;4162011;28;20432;-58
2024/02/28 07:39:05;;;;;;;34.97;19.40;;;7.80;99.90;;;;;;4161605;28;20033;-55
2024/02/28 07:41:06;;;;;;;36.80;20.87;;;7.80;99.90;;;;;;4161924;28;20029;-56
2024/02/28 07:43:08;;;;;;;38.60;20.10;;;8.00;99.90;;;;;;4161834;28;20099;-56
2024/02/28 07:45:09;;;;;;;37.13;21.20;;;8.20;99.90;;;;;;4162446;28;20041;-57
2024/02/28 07:47:10;;;;;;;38.37;21.40;;;8.30;99.90;;;;;;4160821;28;20049;-51
2024/02/28 07:49:13;;;;;;;39.73;20.47;;;8.40;99.90;;;;;;4162079;28;20100;-58
2024/02/28 07:51:15;;;;;;;38.50;21.20;;;8.70;99.90;;;;;;4160456;28;20452;-56
2024/02/28 07:53:17;;;;;;;42.53;22.23;;;8.70;99.90;;;;;;4161583;28;20041;-57
2024/02/28 07:55:19;;;;;;;37.73;21.33;;;9.10;99.90;;;;;;4160420;28;20041;-60
2024/02/28 07:57:21;;;;;;;34.53;21.33;;;9.50;99.90;;;;;;4161728;28;20119;-53
2024/02/28 07:59:23;;;;;;;38.37;21.40;;;9.70;99.90;;;;;;4161485;28;20034;-58
2024/02/28 08:01:24;;;;;;;36.57;18.63;;;9.70;99.90;;;;;;4162204;28;20045;-56
2024/02/28 08:03:25;;;;;;;37.23;20.93;;;10.10;99.90;;;;;;4160064;28;20103;-56
2024/02/28 08:05:27;;;;;;;32.40;18.23;;;10.20;99.90;;;;;;4161562;28;20088;-58
2024/02/28 08:07:28;;;;;;;34.53;18.33;;;10.10;99.90;;;;;;4160500;28;20163;-55
2024/02/28 08:09:29;;;;;;;31.53;18.60;;;10.10;99.90;;;;;;4161070;28;20551;-57
2024/02/28 08:11:31;;;;;;;36.90;18.53;;;10.00;99.90;;;;;;4161587;28;20057;-57
2024/02/28 08:13:33;;;;;;;30.50;17.83;;;10.20;99.90;;;;;;4161458;28;20532;-55
2024/02/28 08:15:34;;;;;;;27.77;16.10;;;10.30;99.90;;;;;;4161204;28;20436;-57
2024/02/28 08:17:36;;;;;;;33.63;17.50;;;10.40;99.90;;;;;;4143405;28;20096;-56
2024/02/28 08:19:37;;;;;;;30.83;15.43;;;10.40;99.90;;;;;;4161785;28;20944;-58
2024/02/28 08:21:39;;;;;;;26.63;15.40;;;10.20;99.90;;;;;;4160042;28;20104;-56
2024/02/28 08:23:40;;;;;;;30.90;15.80;;;10.20;99.90;;;;;;4162053;28;20041;-58
2024/02/28 08:25:41;;;;;;;19.30;12.40;;;10.40;99.90;;;;;;4160179;28;20030;-56
2024/02/28 08:27:42;;;;;;;22.83;12.33;;;10.70;99.90;;;;;;4161280;28;20123;-58
2024/02/28 08:29:45;;;;;;;23.80;12.43;;;10.60;99.90;;;;;;4160877;28;20076;-55
2024/02/28 08:31:46;;;;;;;21.27;12.83;;;10.50;99.90;;;;;;4161763;28;20059;-57
2024/02/28 08:33:48;;;;;;;18.83;11.53;;;10.40;99.90;;;;;;4160651;28;20087;-56
2024/02/28 08:35:51;;;;;;;21.37;12.53;;;10.40;99.90;;;;;;4161247;28;20115;-56
2024/02/28 08:37:52;;;;;;;24.33;12.43;;;10.30;99.90;;;;;;4159995;28;20091;-58
2024/02/28 08:39:57;;;;;;;22.43;12.27;;;10.30;99.90;;;;;;4160629;28;20100;-59
2024/02/28 08:41:59;;;;;;;27.93;12.70;;;10.20;99.90;;;;;;4160717;28;20029;-55
2024/02/28 08:44:00;;;;;;;20.20;11.07;;;10.30;99.90;;;;;;4160916;28;20038;-57
2024/02/28 08:46:01;;;;;;;20.70;11.50;;;10.40;99.90;;;;;;4160856;28;20083;-56
2024/02/28 08:48:03;;;;;;;24.13;13.07;;;10.60;99.90;;;;;;4159448;28;20045;-56
2024/02/28 08:50:04;;;;;;;23.57;14.23;;;10.60;99.90;;;;;;4161352;28;20029;-58
2024/02/28 08:52:06;;;;;;;21.77;12.93;;;10.60;99.90;;;;;;4160323;28;20045;-55
2024/02/28 08:54:07;;;;;;;20.40;13.27;;;10.60;99.90;;;;;;4160592;28;20122;-54
2024/02/28 08:56:10;;;;;;;21.70;13.77;;;10.70;99.90;;;;;;4160119;28;20058;-59
2024/02/28 08:58:11;;;;;;;27.27;14.00;;;10.80;99.90;;;;;;4160231;28;20037;-54
2024/02/28 09:00:13;;;;;;;25.50;12.00;;;11.00;99.90;;;;;;4159751;28;20087;-58
2024/02/28 09:02:14;;;;;;;28.43;13.03;;;11.10;99.90;;;;;;4160653;28;20393;-59
2024/02/28 09:04:15;;;;;;;23.57;13.23;;;11.30;99.90;;;;;;4159231;28;20029;-58
2024/02/28 09:06:17;;;;;;;26.80;12.30;;;11.50;99.90;;;;;;4160864;28;20033;-60
2024/02/28 09:08:19;;;;;;;21.77;12.07;;;11.80;99.90;;;;;;4159216;28;20343;-60
2024/02/28 09:10:23;;;;;;;22.37;11.80;;;11.80;99.90;;;;;;4160793;28;20042;-57
2024/02/28 09:12:24;;;;;;;23.80;12.60;;;11.80;99.90;;;;;;4159674;28;20099;-59
2024/02/28 09:14:26;;;;;;;24.87;11.70;;;11.70;99.90;;;;;;4159969;28;20083;-59
2024/02/28 09:16:27;;;;;;;21.73;12.40;;;11.90;99.90;;;;;;4160050;28;20454;-53
2024/02/28 09:18:28;;;;;;;24.47;11.63;;;12.00;99.90;;;;;;4159295;28;20088;-57
2024/02/28 09:20:30;;;;;;;23.20;12.90;;;12.00;99.90;;;;;;4160787;28;20038;-55
2024/02/28 09:22:31;;;;;;;22.57;11.90;;;12.00;99.90;;;;;;4159177;28;20859;-60
2024/02/28 09:24:33;;;;;;;20.70;10.77;;;12.10;99.90;;;;;;4161176;28;20037;-60
2024/02/28 09:26:39;;;;;;;23.37;10.97;;;12.10;99.90;;;;;;4158303;28;20045;-57
2024/02/28 09:28:40;;;;;;;20.60;11.47;;;12.10;99.90;;;;;;4160664;28;20049;-58
2024/02/28 09:30:42;;;;;;;21.17;10.87;;;12.20;99.90;;;;;;4160118;28;20840;-60
2024/02/28 09:32:44;;;;;;;20.77;11.17;;;12.10;99.90;;;;;;4160077;28;20438;-53
2024/02/28 09:34:45;;;;;;;21.50;12.00;;;12.20;99.90;;;;;;4158909;28;20045;-58
2024/02/28 09:36:46;;;;;;;18.33;10.13;;;12.30;99.90;;;;;;4161094;28;20041;-59
2024/02/28 09:38:48;;;;;;;20.77;11.20;;;12.20;99.90;;;;;;4159864;28;20095;-59
2024/02/28 09:40:49;;;;;;;19.00;10.20;;;12.30;99.90;;;;;;4160720;28;20022;-60
2024/02/28 09:42:56;;;;;;;19.40;10.77;;;12.50;99.90;;;;;;4159101;28;20493;-56
2024/02/28 09:45:01;;;;;;;17.50;9.83;;;12.60;99.90;;;;;;4159646;28;20037;-57
2024/02/28 09:47:03;;;;;;;17.27;10.20;;;12.70;99.90;;;;;;4159265;28;20646;-60
2024/02/28 09:49:05;;;;;;;19.10;10.33;;;12.80;99.90;;;;;;4159227;28;20087;-61
2024/02/28 09:51:08;;;;;;;26.37;11.13;;;12.70;99.90;;;;;;4160165;28;20048;-59
2024/02/28 09:53:10;;;;;;;16.70;8.70;;;12.80;99.90;;;;;;4159198;28;20062;-60
2024/02/28 09:55:12;;;;;;;17.67;10.00;;;12.90;99.90;;;;;;4159398;28;20183;-58
2024/02/28 09:57:14;;;;;;;28.67;11.87;;;12.90;99.90;;;;;;4158939;28;20435;-57
2024/02/28 09:59:17;;;;;;;19.20;9.03;;;13.10;99.90;;;;;;4159709;28;20080;-61
2024/02/28 10:01:21;;;;;;;20.07;8.90;;;13.20;99.90;;;;;;4159336;28;20041;-60
2024/02/28 10:03:24;;;;;;;15.10;7.83;;;13.50;99.90;;;;;;4160175;28;20045;-60
2024/02/28 10:05:28;;;;;;;14.17;8.27;;;13.60;99.90;;;;;;4158812;28;20905;-57
2024/02/28 10:07:29;;;;;;;15.70;7.33;;;13.60;99.70;;;;;;4159804;28;20073;-59
2024/02/28 10:09:30;;;;;;;13.83;7.70;;;13.70;99.20;;;;;;4159759;28;20029;-61
2024/02/28 10:11:33;;;;;;;13.30;7.07;;;13.80;99.50;;;;;;4159848;28;20111;-58
2024/02/28 10:13:35;;;;;;;19.37;7.40;;;13.90;99.20;;;;;;4158557;28;20123;-60
2024/02/28 10:15:36;;;;;;;12.47;5.97;;;13.90;98.40;;;;;;4160205;28;20095;-61
2024/02/28 10:17:38;;;;;;;12.27;7.00;;;14.00;98.10;;;;;;4158795;28;20038;-55
2024/02/28 10:19:39;;;;;;;15.00;7.37;;;14.10;97.70;;;;;;4159313;28;20042;-58
2024/02/28 10:21:41;;;;;;;16.07;7.50;;;14.10;97.60;;;;;;4158938;28;20030;-60
2024/02/28 10:23:43;;;;;;;13.80;6.57;;;14.10;97.50;;;;;;4159125;28;20049;-60